.
WxDataArchive / Data Records for 2012-01-30
2012-01-29 January 2012 2012-01-31

Data Records for Monday, 30 January 2012

Time	Temp	Chill	HIndex	Humid	Dewpt	 Wind 	HiWind	WindDir	Rain 	Barom 
-----	----	-----	------	-----	-----	------	------	-------	-----	----- 
00:00	23.2	23.2	23.2	76	16.8	0	2	248	0.00	30.278 
00:05	23.2	23.2	23.2	76	16.8	0	2	248	0.00	30.278 
00:10	23.2	23.2	23.2	76	16.8	1	3	248	0.00	30.278 
00:15	23.2	23.2	23.2	76	16.8	0	1	248	0.00	30.282 
00:20	23.2	23.2	23.2	76	16.8	0	3	248	0.00	30.282 
00:25	23.2	23.2	23.2	77	17.1	1	3	248	0.00	30.282 
00:30	23.2	23.2	23.2	77	17.1	0	2	248	0.00	30.275 
00:35	23.2	23.2	23.2	78	17.4	0	2	248	0.00	30.275 
00:40	23.2	23.2	23.2	78	17.4	0	2	248	0.00	30.275 
00:45	23.2	23.2	23.2	79	17.7	0	2	248	0.00	30.275 
00:50	23.0	23.0	23.0	79	17.5	0	2	248	0.00	30.275 
00:55	23.0	23.0	23.0	79	17.5	0	1	248	0.00	30.275 
01:00	22.9	22.9	22.9	79	17.4	0	1	248	0.00	30.273 
01:05	22.7	22.7	22.7	80	17.5	0	1	248	0.00	30.273 
01:10	22.7	22.7	22.7	80	17.5	0	2	248	0.00	30.273 
01:15	22.5	22.5	22.5	81	17.6	0	1	248	0.00	30.273 
01:20	22.4	22.4	22.4	81	17.5	0	1	248	0.00	30.273 
01:25	22.4	22.4	22.4	81	17.5	0	2	248	0.00	30.273 
01:30	22.4	22.4	22.4	81	17.5	0	1	248	0.00	30.272 
01:35	22.2	22.2	22.2	81	17.3	0	1	248	0.00	30.272 
01:40	22.1	22.1	22.1	81	17.2	0	1	248	0.00	30.272 
01:45	21.9	21.9	21.9	82	17.3	0	2	248	0.00	30.271 
01:50	21.9	21.9	21.9	82	17.3	0	2	248	0.00	30.271 
01:55	21.9	21.9	21.9	82	17.3	0	0	---	0.00	30.271 
02:00	21.9	21.9	21.9	82	17.3	0	1	248	0.00	30.274 
02:05	21.8	21.8	21.8	82	17.2	0	1	248	0.00	30.274 
02:10	21.6	21.6	21.6	82	17.0	0	1	248	0.00	30.274 
02:15	21.6	21.6	21.6	83	17.3	0	0	---	0.00	30.271 
02:20	21.4	21.4	21.4	83	17.1	0	0	---	0.00	30.271 
02:25	21.3	21.3	21.3	83	17.0	0	0	---	0.00	30.271 
02:30	21.1	21.1	21.1	83	16.8	0	0	---	0.00	30.272 
02:35	20.8	20.8	20.8	83	16.5	0	0	---	0.00	30.272 
02:40	20.5	20.5	20.5	83	16.2	0	0	---	0.00	30.272 
02:45	20.2	20.2	20.2	83	15.9	0	0	---	0.00	30.270 
02:50	19.9	19.9	19.9	83	15.6	0	0	---	0.00	30.270 
02:55	19.5	19.5	19.5	83	15.2	0	0	---	0.00	30.270 
03:00	19.2	19.2	19.2	83	14.9	0	0	---	0.00	30.274 
03:05	18.9	18.9	18.9	83	14.6	0	0	---	0.00	30.274 
03:10	18.8	18.8	18.8	84	14.8	0	0	---	0.00	30.274 
03:15	18.4	18.4	18.4	84	14.4	0	0	---	0.00	30.276 
03:20	18.3	18.3	18.3	84	14.3	0	0	---	0.00	30.276 
03:25	18.0	18.0	18.0	84	14.0	0	0	---	0.00	30.276 
03:30	17.8	17.8	17.8	84	13.8	0	0	---	0.00	30.276 
03:35	17.8	17.8	17.8	84	13.8	0	0	---	0.00	30.276 
03:40	17.8	17.8	17.8	85	14.1	0	0	---	0.00	30.276 
03:45	18.0	18.0	18.0	86	14.5	0	0	---	0.00	30.278 
03:50	18.4	18.4	18.4	87	15.2	0	0	---	0.00	30.278 
03:55	18.9	18.9	18.9	87	15.7	0	0	---	0.00	30.278 
04:00	19.2	19.2	19.2	87	16.0	0	0	---	0.00	30.272 
04:05	19.5	19.5	19.5	87	16.3	0	0	---	0.00	30.272 
04:10	20.0	20.0	20.0	88	17.0	0	0	---	0.00	30.272 
04:15	20.3	20.3	20.3	88	17.3	0	1	248	0.00	30.280 
04:20	20.8	20.8	20.8	88	17.8	0	0	---	0.00	30.280 
04:25	21.1	21.1	21.1	88	18.1	0	0	---	0.00	30.280 
04:30	21.3	21.3	21.3	88	18.3	0	0	---	0.00	30.273 
04:35	21.4	21.4	21.4	88	18.4	0	0	---	0.00	30.273 
04:40	21.4	21.4	21.4	88	18.4	0	0	---	0.00	30.273 
04:45	21.4	21.4	21.4	88	18.4	0	0	---	0.00	30.271 
04:50	21.6	21.6	21.6	88	18.6	0	0	---	0.00	30.271 
04:55	21.6	21.6	21.6	88	18.6	0	0	---	0.00	30.271 
05:00	21.9	21.9	21.9	88	18.9	0	0	---	0.00	30.270 
05:05	22.1	22.1	22.1	88	19.1	0	0	---	0.00	30.270 
05:10	22.4	22.4	22.4	88	19.4	0	1	248	0.00	30.270 
05:15	22.5	22.5	22.5	88	19.5	0	1	248	0.00	30.269 
05:20	22.7	22.7	22.7	88	19.7	0	1	248	0.00	30.269 
05:25	22.9	22.9	22.9	88	19.9	0	1	248	0.00	30.269 
05:30	23.0	23.0	23.0	87	19.7	0	0	---	0.00	30.258 
05:35	23.2	23.2	23.2	87	19.9	0	1	248	0.00	30.258 
05:40	23.3	23.3	23.3	87	20.0	0	0	---	0.00	30.258 
05:45	23.3	23.3	23.3	87	20.0	0	1	248	0.00	30.252 
05:50	23.5	23.5	23.5	86	19.9	0	2	248	0.00	30.252 
05:55	23.6	23.6	23.6	86	20.0	0	1	248	0.00	30.252 
06:00	23.8	23.8	23.8	86	20.2	0	1	248	0.00	30.239 
06:05	23.9	23.9	23.9	86	20.3	0	0	---	0.00	30.239 
06:10	24.1	24.1	24.1	86	20.5	0	2	248	0.00	30.239 
06:15	24.1	24.1	24.1	85	20.3	0	2	248	0.00	30.249 
06:20	24.2	24.2	24.2	85	20.4	0	0	---	0.00	30.249 
06:25	24.4	24.4	24.4	85	20.6	0	1	248	0.00	30.249 
06:30	24.5	24.5	24.5	85	20.6	0	1	248	0.00	30.243 
06:35	24.5	24.5	24.5	85	20.6	0	1	248	0.00	30.243 
06:40	24.5	24.5	24.5	85	20.6	0	1	248	0.00	30.243 
06:45	24.7	24.7	24.7	84	20.6	0	1	248	0.00	30.242 
06:50	24.7	24.7	24.7	84	20.6	0	1	248	0.00	30.242 
06:55	24.8	24.8	24.8	84	20.7	0	2	248	0.00	30.242 
07:00	24.8	24.8	24.8	84	20.7	0	1	248	0.00	30.231 
07:05	25.0	25.0	25.0	83	20.6	1	2	248	0.00	30.231 
07:10	25.0	25.0	25.0	83	20.6	1	3	112	0.00	30.231 
07:15	25.1	25.1	25.1	83	20.7	1	4	112	0.00	30.227 
07:20	25.3	25.3	25.3	82	20.6	1	3	135	0.00	30.227 
07:25	25.3	25.3	25.3	82	20.6	0	2	135	0.00	30.227 
07:30	25.4	25.4	25.4	81	20.4	1	3	135	0.00	30.218 
07:35	25.6	25.6	25.6	81	20.6	1	3	90	0.00	30.218 
07:40	25.6	25.6	25.6	80	20.3	0	1	90	0.00	30.218 
07:45	25.7	25.7	25.7	80	20.4	1	3	90	0.00	30.231 
07:50	25.8	25.8	25.8	79	20.2	1	3	90	0.00	30.231 
07:55	26.0	26.0	26.0	78	20.1	1	3	90	0.00	30.231 
08:00	26.0	26.0	26.0	78	20.1	0	2	90	0.00	30.228 
08:05	26.1	26.1	26.1	77	19.9	1	3	90	0.00	30.228 
08:10	26.3	26.3	26.3	77	20.1	1	3	90	0.00	30.228 
08:15	26.4	26.4	26.4	77	20.2	0	2	90	0.00	30.227 
08:20	26.4	26.4	26.4	78	20.5	1	3	112	0.00	30.227 
08:25	26.6	26.6	26.6	78	20.7	1	2	112	0.00	30.227 
08:30	26.6	26.6	26.6	78	20.7	1	3	90	0.00	30.222 
08:35	26.6	26.6	26.6	78	20.7	1	4	112	0.00	30.222 
08:40	26.7	26.7	26.7	78	20.8	1	3	112	0.00	30.222 
08:45	26.9	26.9	26.9	78	21.0	1	3	112	0.00	30.225 
08:50	27.0	27.0	27.0	78	21.1	0	3	112	0.00	30.225 
08:55	27.0	27.0	27.0	78	21.1	1	2	112	0.00	30.225 
09:00	27.2	27.2	27.2	79	21.6	1	2	112	0.00	30.222 
09:05	27.3	27.3	27.3	79	21.7	1	3	112	0.00	30.222 
09:10	27.5	27.5	27.5	78	21.6	1	3	112	0.00	30.222 
09:15	27.8	27.8	27.8	78	21.8	1	3	90	0.00	30.219 
09:20	27.9	27.9	27.9	77	21.6	1	4	90	0.00	30.219 
09:25	28.1	28.1	28.1	77	21.8	1	3	112	0.00	30.219 
09:30	28.2	28.2	28.2	77	21.9	2	5	112	0.00	30.207 
09:35	28.4	28.4	28.4	76	21.8	1	4	112	0.00	30.207 
09:40	28.7	28.7	28.7	76	22.1	2	4	112	0.00	30.207 
09:45	28.8	28.8	28.8	75	21.9	2	4	112	0.00	30.193 
09:50	29.0	29.0	29.0	75	22.1	2	5	90	0.00	30.193 
09:55	29.3	29.3	29.3	74	22.1	2	5	112	0.00	30.193 
10:00	29.4	29.4	29.4	73	21.8	2	5	112	0.00	30.191 
10:05	29.5	29.5	29.5	73	21.9	2	6	112	0.00	30.191 
10:10	29.7	29.7	29.7	73	22.1	2	5	112	0.00	30.191 
10:15	30.0	30.0	30.0	72	22.1	1	4	112	0.00	30.186 
10:20	30.3	30.3	30.3	72	22.4	1	4	135	0.00	30.186 
10:25	30.4	30.4	30.4	70	21.8	2	5	90	0.00	30.186 
10:30	30.7	30.7	30.7	70	22.1	2	5	90	0.00	30.191 
10:35	31.0	31.0	31.0	69	22.0	1	3	112	0.00	30.191 
10:40	31.3	31.3	31.3	68	22.0	1	5	90	0.00	30.191 
10:45	31.5	31.5	31.5	68	22.2	2	4	112	0.00	30.180 
10:50	31.8	31.8	31.8	68	22.5	2	5	112	0.00	30.180 
10:55	31.9	31.9	31.9	67	22.2	2	5	90	0.00	30.180 
11:00	32.2	32.2	32.2	67	22.5	1	4	90	0.00	30.168 
11:05	32.2	32.2	32.2	67	22.5	1	3	112	0.00	30.168 
11:10	32.5	32.5	32.5	67	22.8	1	4	112	0.00	30.168 
11:15	32.7	32.7	32.7	66	22.6	2	5	112	0.00	30.153 
11:20	32.8	32.8	32.8	65	22.3	2	5	90	0.00	30.153 
11:25	33.1	33.1	33.1	66	23.0	2	5	112	0.00	30.153 
11:30	33.4	33.4	33.4	65	22.9	2	4	90	0.00	30.148 
11:35	33.7	33.7	33.7	65	23.2	2	5	135	0.00	30.148 
11:40	34.1	34.1	34.1	64	23.2	2	5	112	0.00	30.148 
11:45	34.4	34.4	34.4	62	22.7	3	10	90	0.00	30.140 
11:50	34.6	34.6	34.6	62	22.9	3	7	90	0.00	30.140 
11:55	34.7	34.7	34.7	62	23.0	2	6	90	0.00	30.140 
12:00	35.0	35.0	35.0	60	22.5	3	11	112	0.00	30.120 
12:05	35.3	35.3	35.3	60	22.8	2	5	112	0.00	30.120 
12:10	35.6	35.6	35.6	60	23.1	3	7	112	0.00	30.120 
12:15	35.8	35.8	35.8	60	23.3	3	9	68	0.00	30.106 
12:20	35.9	35.9	35.9	60	23.4	2	4	90	0.00	30.106 
12:25	36.0	36.0	36.0	61	23.9	2	7	68	0.00	30.106 
12:30	36.0	36.0	36.0	61	23.9	2	5	68	0.00	30.093 
12:35	36.0	36.0	36.0	61	23.9	1	4	90	0.00	30.093 
12:40	36.3	36.3	36.3	61	24.2	2	6	90	0.00	30.093 
12:45	36.5	36.5	36.5	62	24.7	1	3	22	0.00	30.087 
12:50	36.6	36.6	36.6	61	24.4	1	3	248	0.00	30.087 
12:55	36.9	36.9	36.9	62	25.1	1	3	248	0.00	30.087 
13:00	37.0	37.0	37.0	61	24.8	1	5	68	0.00	30.074 
13:05	37.3	37.3	37.3	62	25.5	1	3	68	0.00	30.074 
13:10	37.5	37.5	37.5	62	25.7	1	4	68	0.00	30.074 
13:15	37.6	37.6	37.6	62	25.8	0	2	315	0.00	30.061 
13:20	37.8	37.8	37.8	62	26.0	2	4	90	0.01	30.061 
13:25	38.0	38.0	38.0	62	26.2	2	6	68	0.00	30.061 
13:30	38.2	38.2	38.2	62	26.3	2	5	68	0.00	30.033 
13:35	38.5	38.5	38.5	62	26.6	1	4	90	0.00	30.033 
13:40	38.9	38.9	38.9	62	27.0	2	5	68	0.00	30.033 
13:45	39.3	39.3	39.3	62	27.4	1	3	0	0.00	30.027 
13:50	39.6	39.6	39.6	62	27.7	1	5	22	0.00	30.027 
13:55	39.9	39.9	39.9	62	28.0	1	4	270	0.00	30.027 
14:00	40.2	40.2	40.2	61	27.8	2	5	248	0.00	30.014 
14:05	40.5	40.5	40.5	61	28.1	1	4	225	0.00	30.014 
14:10	40.6	40.6	40.6	61	28.2	1	6	270	0.00	30.014 
14:15	40.8	40.8	40.8	60	28.0	2	7	248	0.00	30.011 
14:20	40.9	40.9	40.9	61	28.5	3	9	248	0.00	30.011 
14:25	40.8	40.8	40.8	61	28.4	2	7	248	0.00	30.011 
14:30	40.8	40.8	40.8	62	28.8	2	9	270	0.00	30.000 
14:35	40.8	40.8	40.8	62	28.8	2	9	248	0.00	30.000 
14:40	40.8	40.8	40.8	63	29.2	1	7	90	0.00	30.000 
14:45	40.9	40.9	40.9	63	29.3	1	3	248	0.00	29.995 
14:50	41.2	41.2	41.2	63	29.6	3	9	270	0.00	29.995 
14:55	41.3	41.3	41.3	63	29.7	1	5	248	0.00	29.995 
15:00	41.3	41.3	41.3	63	29.7	2	9	248	0.00	29.984 
15:05	41.5	41.5	41.5	63	29.9	2	10	248	0.00	29.984 
15:10	41.6	41.6	41.6	62	29.6	2	6	248	0.00	29.984 
15:15	41.9	41.9	41.9	62	29.8	2	6	270	0.00	29.980 
15:20	42.2	42.2	42.2	63	30.5	2	7	248	0.00	29.980 
15:25	42.3	42.3	42.3	62	30.2	2	6	248	0.00	29.980 
15:30	42.5	42.5	42.5	62	30.4	1	4	248	0.00	29.975 
15:35	42.8	42.8	42.8	62	30.7	2	6	270	0.00	29.975 
15:40	43.2	43.2	43.2	61	30.7	2	6	248	0.00	29.975 
15:45	43.2	43.2	43.2	61	30.7	2	7	248	0.00	29.969 
15:50	43.2	43.2	43.2	60	30.3	2	6	248	0.00	29.969 
15:55	42.9	42.9	42.9	60	30.0	2	7	270	0.00	29.969 
16:00	42.8	42.8	42.8	61	30.3	2	7	248	0.00	29.963 
16:05	42.8	42.8	42.8	61	30.3	2	9	248	0.00	29.963 
16:10	42.8	42.8	42.8	61	30.3	2	7	292	0.00	29.963 
16:15	42.8	42.8	42.8	61	30.3	2	6	248	0.00	29.959 
16:20	42.9	42.9	42.9	61	30.4	2	6	248	0.00	29.959 
16:25	43.1	43.1	43.1	61	30.6	2	7	270	0.00	29.959 
16:30	43.1	43.1	43.1	61	30.6	2	4	248	0.00	29.956 
16:35	43.1	43.1	43.1	61	30.6	2	5	248	0.00	29.956 
16:40	43.3	43.3	43.3	62	31.2	2	7	315	0.00	29.956 
16:45	43.8	43.8	43.8	61	31.2	2	6	248	0.00	29.949 
16:50	44.1	44.1	44.1	60	31.1	2	5	248	0.00	29.949 
16:55	44.2	44.2	44.2	59	30.8	2	6	270	0.00	29.949 
17:00	44.3	44.3	44.3	60	31.3	2	7	248	0.00	29.952 
17:05	44.3	44.3	44.3	60	31.3	2	5	248	0.00	29.952 
17:10	44.5	44.5	44.5	60	31.5	2	6	248	0.00	29.952 
17:15	44.5	44.5	44.5	60	31.5	2	5	248	0.00	29.952 
17:20	44.3	44.3	44.3	60	31.3	2	7	248	0.00	29.952 
17:25	44.5	44.5	44.5	60	31.5	2	10	248	0.00	29.952 
17:30	44.3	44.3	44.3	61	31.7	2	5	292	0.00	29.954 
17:35	44.3	44.3	44.3	61	31.7	1	4	248	0.00	29.954 
17:40	44.2	44.2	44.2	61	31.6	2	7	248	0.00	29.954 
17:45	44.2	44.2	44.2	62	32.0	1	4	248	0.00	29.954 
17:50	44.1	44.1	44.1	62	31.9	1	4	225	0.00	29.954 
17:55	44.1	44.1	44.1	62	31.9	1	3	248	0.00	29.954 
18:00	43.9	43.9	43.9	62	31.7	1	3	248	0.00	29.954 
18:05	43.9	43.9	43.9	63	32.1	1	5	248	0.00	29.954 
18:10	43.8	43.8	43.8	63	32.0	1	4	248	0.00	29.954 
18:15	43.6	43.6	43.6	63	31.8	1	4	248	0.00	29.949 
18:20	43.6	43.6	43.6	63	31.8	1	5	248	0.00	29.949 
18:25	43.6	43.6	43.6	63	31.8	1	5	248	0.00	29.949 
18:30	43.6	43.6	43.6	63	31.8	1	4	248	0.00	29.946 
18:35	43.6	43.6	43.6	63	31.8	1	4	248	0.00	29.946 
18:40	43.6	43.6	43.6	63	31.8	1	4	248	0.00	29.946 
18:45	43.6	43.6	43.6	63	31.8	1	5	248	0.00	29.948 
18:50	43.6	43.6	43.6	64	32.2	1	6	248	0.00	29.948 
18:55	43.8	43.8	43.8	64	32.4	1	4	248	0.00	29.948 
19:00	43.8	43.8	43.8	64	32.4	1	5	270	0.00	29.948 
19:05	43.9	43.9	43.9	63	32.1	2	6	248	0.00	29.948 
19:10	44.1	44.1	44.1	63	32.3	2	4	248	0.00	29.948 
19:15	44.2	44.2	44.2	63	32.4	2	7	248	0.00	29.954 
19:20	44.2	44.2	44.2	63	32.4	1	3	270	0.00	29.954 
19:25	44.2	44.2	44.2	63	32.4	2	5	270	0.00	29.954 
19:30	44.2	44.2	44.2	63	32.4	2	6	248	0.00	29.955 
19:35	44.3	44.3	44.3	62	32.1	1	6	248	0.00	29.955 
19:40	44.2	44.2	44.2	62	32.0	1	3	248	0.00	29.955 
19:45	44.2	44.2	44.2	62	32.0	2	5	248	0.00	29.955 
19:50	44.5	44.5	44.5	61	31.9	2	4	248	0.00	29.955 
19:55	44.6	44.6	44.6	61	32.0	2	7	248	0.00	29.955 
20:00	45.1	45.1	45.1	60	32.1	2	7	248	0.00	29.962 
20:05	45.1	45.1	45.1	59	31.6	2	7	248	0.00	29.962 
20:10	45.2	45.2	45.2	59	31.7	2	6	248	0.00	29.962 
20:15	45.2	45.2	45.2	58	31.3	2	6	248	0.00	29.963 
20:20	45.4	45.4	45.4	58	31.5	2	6	248	0.00	29.963 
20:25	45.4	45.4	45.4	58	31.5	2	6	248	0.00	29.963 
20:30	45.4	45.4	45.4	58	31.5	2	6	248	0.00	29.966 
20:35	45.4	45.4	45.4	58	31.5	2	6	248	0.00	29.966 
20:40	45.4	45.4	45.4	57	31.1	2	6	248	0.00	29.966 
20:45	45.5	45.5	45.5	57	31.2	2	7	248	0.00	29.963 
20:50	45.5	45.5	45.5	57	31.2	2	5	248	0.00	29.963 
20:55	45.4	45.4	45.4	57	31.1	2	5	270	0.00	29.963 
21:00	45.4	45.4	45.4	57	31.1	2	5	248	0.00	29.969 
21:05	45.4	45.4	45.4	57	31.1	2	6	248	0.00	29.969 
21:10	45.2	45.2	45.2	57	30.9	2	7	248	0.00	29.969 
21:15	45.2	45.2	45.2	58	31.3	2	5	270	0.00	29.961 
21:20	45.2	45.2	45.2	58	31.3	2	7	248	0.00	29.961 
21:25	45.2	45.2	45.2	58	31.3	2	6	248	0.00	29.961 
21:30	45.4	45.4	45.4	58	31.5	2	7	248	0.00	29.968 
21:35	45.4	45.4	45.4	58	31.5	3	9	248	0.00	29.968 
21:40	45.2	45.2	45.2	58	31.3	2	5	248	0.00	29.968 
21:45	45.4	45.4	45.4	58	31.5	3	7	248	0.00	29.968 
21:50	45.2	45.2	45.2	58	31.3	2	7	248	0.00	29.968 
21:55	45.2	45.2	45.2	58	31.3	3	9	248	0.00	29.968 
22:00	45.2	45.2	45.2	58	31.3	2	5	248	0.00	29.964 
22:05	45.2	45.2	45.2	58	31.3	2	6	248	0.00	29.964 
22:10	45.2	45.2	45.2	58	31.3	3	7	248	0.00	29.964 
22:15	45.4	45.4	45.4	58	31.5	2	5	248	0.00	29.965 
22:20	45.5	45.5	45.5	58	31.6	3	9	248	0.00	29.965 
22:25	45.4	45.4	45.4	58	31.5	1	4	248	0.00	29.965 
22:30	45.2	45.2	45.2	59	31.7	2	5	248	0.00	29.966 
22:35	45.2	45.2	45.2	59	31.7	2	5	248	0.00	29.966 
22:40	45.1	45.1	45.1	59	31.6	2	6	248	0.00	29.966 
22:45	45.1	45.1	45.1	59	31.6	2	6	270	0.00	29.973 
22:50	44.9	44.9	44.9	60	31.9	1	5	248	0.00	29.973 
22:55	44.8	44.8	44.8	60	31.8	2	5	248	0.00	29.973 
23:00	44.6	44.6	44.6	60	31.6	2	5	248	0.00	29.973 
23:05	44.6	44.6	44.6	60	31.6	1	4	225	0.00	29.973 
23:10	44.5	44.5	44.5	61	31.9	1	4	248	0.00	29.973 
23:15	44.3	44.3	44.3	61	31.7	2	6	248	0.00	29.965 
23:20	44.3	44.3	44.3	61	31.7	1	4	248	0.00	29.965 
23:25	44.3	44.3	44.3	61	31.7	1	5	248	0.00	29.965 
23:30	44.2	44.2	44.2	61	31.6	1	5	248	0.00	29.967 
23:35	44.2	44.2	44.2	61	31.6	1	5	248	0.00	29.967 
23:40	44.2	44.2	44.2	61	31.6	2	7	248	0.00	29.967 
23:45	44.3	44.3	44.3	61	31.7	2	9	248	0.00	29.970 
23:50	44.3	44.3	44.3	61	31.7	2	6	270	0.00	29.970 
23:55	44.2	44.2	44.2	61	31.6	2	4	248	0.00	29.970 

CoCoRaHS
IN-AL-39
A2 Web Hosting
Creative Commons License
GoDaddy
search engine by freefind advanced

loaded 2018-11-15 13:33:40 • last modified 2010-11-18 10:43:29
Privacy PolicyDisclaimer
• wx.awcolley.com is powered by PmWiki v.2002016 •
• all content (unless otherwise noted) © 2018 A W Colley